Ramillies, Belgium
Current Conditions -  °F | °C
As of 7:47 AM on Friday 19 Dec 2014 (Local Time) from EBBE Reporting Station
Light Rain Light Rain  
Wind Chill: 50°   Ceiling: 1000
Heat Index: 50°   Visibility: 4mi
Dew Point: 48°   Wind: 23mph
Humidity: 94%   Direction: 220°SW
Pressure: 29.88"   Gusts: NA
Location:  50.63°N, 4.9°E
Report Text: EBBE 190647Z 22020KT 6000 -RADZ FEW006 SCT007 BKN010 10/09 Q1012 GRN GRN TEMPO YLO
Loading
Personal Weather Stations






























Interactive Weather Map New forecast layout! Learn more

10-Day Weather Forecast

Advertisements
Track Severe Weather on mobile